createdAt,value
2018-04-27T04:09:54.749Z,5
2018-04-27T04:10:20.251Z,5
2018-04-27T04:10:45.744Z,5
2018-04-27T04:11:11.253Z,5
2018-04-27T04:11:36.669Z,5
2018-04-27T04:12:02.159Z,5
2018-04-27T04:12:27.624Z,5
2018-04-27T04:12:53.101Z,5
2018-04-27T04:13:18.944Z,5
2018-04-27T04:13:44.342Z,5
2018-04-27T04:14:10.048Z,5
2018-04-27T04:14:35.520Z,10
2018-04-27T04:15:01.004Z,10
2018-04-27T04:15:26.478Z,10
2018-04-27T04:15:51.923Z,10
2018-04-27T04:17:10.371Z,10
2018-04-27T04:17:35.842Z,10
2018-04-27T04:18:01.320Z,10
2018-04-27T04:18:26.862Z,10
2018-04-27T04:18:52.368Z,10
2018-04-27T04:19:17.822Z,10
2018-04-27T04:19:43.274Z,10
2018-04-27T04:20:08.793Z,10
2018-04-27T04:20:34.252Z,10
2018-04-27T04:20:59.743Z,10
2018-04-27T04:21:25.218Z,10
2018-04-27T04:21:50.681Z,10
2018-04-27T04:22:16.125Z,15
2018-04-27T04:22:41.611Z,15
2018-04-27T04:23:07.137Z,15
2018-04-27T04:23:32.652Z,15
2018-04-27T04:23:58.138Z,15
2018-04-27T04:24:23.631Z,15
2018-04-27T04:24:49.122Z,15
2018-04-27T04:25:14.607Z,15
2018-04-27T04:25:40.098Z,15
2018-04-27T04:26:05.570Z,15
2018-04-27T04:26:31.089Z,15
2018-04-27T04:26:56.622Z,15
2018-04-27T04:27:22.120Z,15
2018-04-27T04:27:47.626Z,15
2018-04-27T04:28:13.123Z,15
2018-04-27T04:28:38.592Z,20
2018-04-27T04:29:04.136Z,20
2018-04-27T04:29:29.624Z,20
2018-04-27T04:29:55.092Z,20
2018-04-27T04:30:20.569Z,20
2018-04-27T04:30:46.557Z,20
2018-04-27T04:31:12.191Z,20
2018-04-27T04:31:37.707Z,20
2018-04-27T04:32:03.191Z,20
2018-04-27T04:32:28.916Z,20
2018-04-27T04:32:54.512Z,20
2018-04-27T04:33:20.145Z,20
2018-04-27T04:33:45.788Z,20
2018-04-27T04:34:11.331Z,20
2018-04-27T04:34:46.710Z,25
2018-04-27T04:35:12.203Z,25
2018-04-27T04:35:37.718Z,25
2018-04-27T04:36:03.245Z,25
2018-04-27T04:36:28.750Z,25
2018-04-27T04:36:54.281Z,25
2018-04-27T04:37:19.797Z,25
2018-04-27T04:37:45.343Z,25
2018-04-27T04:38:10.834Z,25
2018-04-27T04:38:36.310Z,25
2018-04-27T04:39:01.804Z,25
2018-04-27T04:39:27.258Z,25
2018-04-27T04:39:52.719Z,30
2018-04-27T04:40:18.219Z,30
2018-04-27T04:40:43.648Z,30
2018-04-27T04:41:09.110Z,30
2018-04-27T04:41:34.597Z,30
2018-04-27T04:42:00.075Z,30
2018-04-27T04:42:25.637Z,30
2018-04-27T04:42:51.183Z,30
2018-04-27T04:43:16.669Z,30
2018-04-27T04:43:42.162Z,30
2018-04-27T04:44:07.651Z,30
2018-04-27T04:44:33.130Z,30
2018-04-27T04:44:58.635Z,35
2018-04-27T04:45:24.120Z,35
2018-04-27T04:45:49.651Z,35
2018-04-27T04:46:15.149Z,35
2018-04-27T04:46:40.617Z,35
2018-04-27T04:47:06.110Z,35
2018-04-27T04:47:31.573Z,35
2018-04-27T04:47:57.026Z,35
2018-04-27T04:48:22.537Z,35
2018-04-27T04:48:48.023Z,35
2018-04-27T04:49:13.484Z,35
2018-04-27T04:49:38.985Z,40
2018-04-27T04:50:04.433Z,40
2018-04-27T04:50:29.923Z,40
2018-04-27T04:50:55.387Z,40
2018-04-27T04:51:20.851Z,40
2018-04-27T04:51:46.371Z,40
2018-04-27T04:52:11.883Z,40
2018-04-27T04:52:37.458Z,45
2018-04-27T04:53:02.853Z,45
2018-04-27T04:53:28.333Z,45
2018-04-27T04:53:53.833Z,45
2018-04-27T04:54:19.357Z,45
2018-04-27T04:54:44.923Z,45
2018-04-27T04:55:10.392Z,50
2018-04-27T04:55:35.878Z,50
2018-04-27T04:56:01.344Z,50
2018-04-27T04:56:26.849Z,50
2018-04-27T04:56:52.291Z,50
2018-04-27T04:57:17.775Z,50
2018-04-27T04:57:43.253Z,55
2018-04-27T04:58:08.740Z,55
2018-04-27T04:58:34.268Z,55
2018-04-27T04:58:59.781Z,60
2018-04-27T04:59:25.307Z,60
2018-04-27T04:59:50.757Z,65
2018-04-27T05:00:16.236Z,65
2018-04-27T05:00:41.756Z,70
2018-04-27T05:01:07.267Z,65
2018-04-27T05:01:32.782Z,70
2018-04-27T05:01:58.286Z,70
2018-04-27T05:02:23.725Z,70
2018-04-27T05:02:49.299Z,70
2018-04-27T05:03:14.669Z,70
2018-04-27T05:03:40.204Z,70
2018-04-27T05:04:05.706Z,75
2018-04-27T05:04:31.175Z,75
2018-04-27T05:04:56.713Z,75
2018-04-27T05:05:22.367Z,80
2018-04-27T05:05:48.572Z,80
2018-04-27T05:06:14.017Z,80
2018-04-27T05:06:39.641Z,80
2018-04-27T05:07:05.366Z,80
2018-04-27T05:07:30.953Z,85
2018-04-27T05:07:56.797Z,90
2018-04-27T05:08:22.545Z,95
2018-04-27T05:08:48.069Z,95
2018-04-27T05:09:13.700Z,95
2018-04-27T05:09:39.269Z,95
2018-04-27T05:10:04.856Z,100
2018-04-27T05:10:30.330Z,100
2018-04-27T05:10:55.847Z,105
2018-04-27T05:11:21.362Z,105
2018-04-27T05:11:46.913Z,105
2018-04-27T05:12:12.319Z,105
2018-04-27T05:12:37.819Z,110
2018-04-27T05:13:03.343Z,110
2018-04-27T05:13:28.834Z,110
2018-04-27T05:13:54.381Z,110
2018-04-27T05:14:19.871Z,110
2018-04-27T05:14:45.362Z,115
2018-04-27T05:15:10.856Z,115
2018-04-27T05:15:36.459Z,115
2018-04-27T05:16:02.113Z,115
2018-04-27T05:16:27.528Z,115
2018-04-27T05:16:53.046Z,115
2018-04-27T05:17:18.620Z,120
2018-04-27T05:17:44.149Z,120
2018-04-27T05:18:09.646Z,120
2018-04-27T05:18:35.207Z,120
2018-04-27T05:19:00.703Z,125
2018-04-27T05:19:26.462Z,120
2018-04-27T05:19:51.894Z,115
2018-04-27T05:20:17.492Z,120
2018-04-27T05:20:43.027Z,120
2018-04-27T05:21:08.514Z,115
2018-04-27T05:21:34.076Z,115
2018-04-27T05:21:59.579Z,120
2018-04-27T05:22:25.197Z,120
2018-04-27T05:22:50.678Z,120
2018-04-27T05:23:16.186Z,120
2018-04-27T05:23:41.757Z,125
2018-04-27T05:24:07.529Z,125
2018-04-27T05:24:33.433Z,120
2018-04-27T05:24:59.676Z,130
2018-04-27T05:25:24.686Z,130
2018-04-27T05:25:50.769Z,130
2018-04-27T05:26:16.224Z,135
2018-04-27T05:26:41.993Z,135
2018-04-27T05:27:07.832Z,135
2018-04-27T05:27:33.771Z,135
2018-04-27T05:27:59.146Z,135
2018-04-27T05:28:24.649Z,135
2018-04-27T05:28:50.144Z,135
2018-04-27T05:29:15.628Z,135
2018-04-27T05:29:41.181Z,135
2018-04-27T05:30:06.636Z,135
2018-04-27T05:30:32.223Z,135
2018-04-27T05:30:57.609Z,135
2018-04-27T05:31:23.138Z,135
2018-04-27T05:31:48.606Z,135
2018-04-27T05:32:14.076Z,135
2018-04-27T05:32:39.677Z,120
2018-04-27T05:33:05.157Z,115
2018-04-27T05:33:30.669Z,110
2018-04-27T05:33:56.334Z,95
2018-04-27T05:34:21.770Z,115
2018-04-27T05:34:47.325Z,145
2018-04-27T05:35:13.059Z,145
2018-04-27T05:35:38.823Z,145
2018-04-27T05:36:04.527Z,140
2018-04-27T05:36:30.187Z,140
2018-04-27T05:36:55.698Z,140
2018-04-27T05:37:21.340Z,135
2018-04-27T05:37:46.829Z,140
2018-04-27T05:38:12.408Z,140
2018-04-27T05:38:37.863Z,140
2018-04-27T05:39:03.405Z,140
2018-04-27T05:39:28.935Z,140
2018-04-27T05:39:54.410Z,140
2018-04-27T05:40:19.899Z,140
2018-04-27T05:40:45.363Z,140
2018-04-27T05:41:10.843Z,145
2018-04-27T05:41:36.316Z,150
2018-04-27T05:42:01.785Z,145
2018-04-27T05:42:27.305Z,150
2018-04-27T05:42:52.753Z,160
2018-04-27T05:43:18.295Z,160
2018-04-27T05:43:43.921Z,155
2018-04-27T05:44:09.394Z,155
2018-04-27T05:44:34.884Z,150
2018-04-27T05:45:48.339Z,165
2018-04-27T05:46:14.150Z,170
2018-04-27T05:46:39.839Z,170
2018-04-27T05:47:05.294Z,170
2018-04-27T05:47:31.017Z,170
2018-04-27T05:47:56.514Z,170
2018-04-27T05:48:22.017Z,170
2018-04-27T05:48:47.553Z,165
2018-04-27T05:49:13.056Z,165
2018-04-27T05:49:38.584Z,170
2018-04-27T05:50:04.476Z,170
2018-04-27T05:50:29.569Z,170
2018-04-27T05:50:55.069Z,175
2018-04-27T05:51:20.580Z,180
2018-04-27T05:51:46.073Z,185
2018-04-27T05:52:11.708Z,185
2018-04-27T05:52:37.299Z,190
2018-04-27T05:53:02.774Z,190
2018-04-27T05:53:28.237Z,180
2018-04-27T05:53:53.736Z,185
2018-04-27T05:54:19.495Z,195
2018-04-27T05:54:45.233Z,200
2018-04-27T05:55:10.641Z,200
2018-04-27T05:55:36.267Z,205
2018-04-27T05:56:01.738Z,205
2018-04-27T05:56:27.226Z,205
2018-04-27T05:56:53.379Z,205
2018-04-27T05:57:19.319Z,205
2018-04-27T05:57:45.324Z,205
2018-04-27T05:58:10.785Z,205
2018-04-27T05:58:36.300Z,205
2018-04-27T05:59:01.869Z,200
2018-04-27T05:59:27.419Z,185
2018-04-27T05:59:53.131Z,185
2018-04-27T06:00:18.766Z,200
2018-04-27T06:00:44.548Z,185
2018-04-27T06:01:10.678Z,180
2018-04-27T06:01:36.316Z,185
2018-04-27T06:02:02.143Z,175
2018-04-27T06:02:28.197Z,175
2018-04-27T06:02:54.241Z,175
2018-04-27T06:03:19.836Z,185
2018-04-27T06:03:45.361Z,190
2018-04-27T06:04:10.939Z,180
2018-04-27T06:04:36.793Z,185
2018-04-27T06:05:02.700Z,190
2018-04-27T06:05:28.307Z,195
2018-04-27T06:05:54.562Z,185
2018-04-27T06:06:19.679Z,195
2018-04-27T06:06:45.301Z,190
2018-04-27T06:07:10.955Z,190
2018-04-27T06:07:36.510Z,205
2018-04-27T06:08:02.132Z,200
2018-04-27T06:08:27.778Z,200
2018-04-27T06:08:53.220Z,215
2018-04-27T06:09:18.763Z,215
2018-04-27T06:09:44.272Z,220
2018-04-27T06:10:09.917Z,230
2018-04-27T06:10:35.382Z,235
2018-04-27T06:11:00.872Z,240
2018-04-27T06:11:26.412Z,245
2018-04-27T06:11:51.987Z,265
2018-04-27T06:12:18.536Z,280
2018-04-27T06:12:43.268Z,265
2018-04-27T06:13:08.725Z,260
2018-04-27T06:13:34.293Z,245
2018-04-27T06:13:59.930Z,280
2018-04-27T06:14:25.498Z,275
2018-04-27T06:14:51.030Z,280
2018-04-27T06:15:16.581Z,265
2018-04-27T06:15:42.066Z,235
2018-04-27T06:16:07.714Z,290
2018-04-27T06:16:33.150Z,305
2018-04-27T06:16:59.358Z,305
2018-04-27T06:17:24.680Z,300
2018-04-27T06:17:50.809Z,305
2018-04-27T06:18:16.387Z,305
2018-04-27T06:18:42.570Z,300
2018-04-27T06:19:08.058Z,300
2018-04-27T06:19:33.556Z,295
2018-04-27T06:19:59.070Z,295
2018-04-27T06:20:24.822Z,290
2018-04-27T06:20:50.473Z,270
2018-04-27T06:21:16.097Z,270
2018-04-27T06:21:41.786Z,270
2018-04-27T06:22:07.338Z,255
2018-04-27T06:22:32.952Z,250
2018-04-27T06:22:58.607Z,250
2018-04-27T06:23:24.021Z,245
2018-04-27T06:23:49.696Z,240
2018-04-27T06:24:15.276Z,225
2018-04-27T06:24:40.818Z,240
2018-04-27T06:25:06.382Z,245
2018-04-27T06:25:32.048Z,245
2018-04-27T06:25:57.620Z,250
2018-04-27T06:26:23.357Z,250
2018-04-27T06:26:49.001Z,255
2018-04-27T06:27:14.806Z,250
2018-04-27T06:27:40.727Z,255
2018-04-27T06:28:06.220Z,255
2018-04-27T06:28:31.777Z,255
2018-04-27T06:28:57.383Z,255
2018-04-27T06:29:23.073Z,255
2018-04-27T06:29:48.619Z,260
2018-04-27T06:30:14.282Z,260
2018-04-27T06:30:39.907Z,265
2018-04-27T06:31:05.654Z,275
2018-04-27T06:31:31.516Z,270
2018-04-27T06:31:57.292Z,275
2018-04-27T06:32:22.909Z,275
2018-04-27T06:32:48.408Z,270
2018-04-27T06:33:13.963Z,265
2018-04-27T06:33:39.513Z,265
2018-04-27T06:34:05.053Z,265
2018-04-27T06:34:31.829Z,270
2018-04-27T06:34:57.453Z,275
2018-04-27T06:35:23.012Z,280
2018-04-27T06:35:48.579Z,275
2018-04-27T06:36:14.101Z,275
2018-04-27T06:36:39.637Z,280
2018-04-27T06:37:05.211Z,285
2018-04-27T06:37:30.730Z,285
2018-04-27T06:37:56.295Z,280
2018-04-27T06:38:21.855Z,285
2018-04-27T06:38:47.374Z,285
2018-04-27T06:39:12.948Z,285
2018-04-27T06:39:38.618Z,270
2018-04-27T06:40:04.145Z,265
2018-04-27T06:40:29.750Z,290
2018-04-27T06:40:55.373Z,290
2018-04-27T06:41:20.978Z,295
2018-04-27T06:41:46.471Z,295
2018-04-27T06:42:12.042Z,295
2018-04-27T06:42:37.622Z,300
2018-04-27T06:43:03.160Z,300
2018-04-27T06:43:28.731Z,305
2018-04-27T06:43:54.717Z,300
2018-04-27T06:44:20.311Z,305
2018-04-27T06:44:45.891Z,310
2018-04-27T06:45:11.628Z,310
2018-04-27T06:45:37.459Z,315
2018-04-27T06:46:03.035Z,325
2018-04-27T06:46:28.953Z,340
2018-04-27T06:46:54.615Z,385
2018-04-27T06:47:21.111Z,470
2018-04-27T06:47:46.714Z,580
2018-04-27T06:48:12.295Z,680
2018-04-27T06:48:38.055Z,750
2018-04-27T06:49:03.951Z,805
2018-04-27T06:49:29.497Z,855
2018-04-27T06:49:55.223Z,840
2018-04-27T06:50:20.909Z,855
2018-04-27T06:50:46.671Z,895
2018-04-27T06:51:12.516Z,925
2018-04-27T06:51:38.201Z,950
2018-04-27T06:52:04.225Z,910
2018-04-27T06:52:29.929Z,865
2018-04-27T06:52:55.777Z,830
2018-04-27T06:53:21.792Z,850
2018-04-27T06:53:47.484Z,875
2018-04-27T06:54:13.116Z,935
2018-04-27T06:54:39.071Z,940
2018-04-27T06:55:04.589Z,1090
2018-04-27T06:55:30.134Z,1125
2018-04-27T06:55:55.643Z,1130
2018-04-27T06:56:21.209Z,1105
2018-04-27T06:56:46.740Z,1080
2018-04-27T06:57:12.295Z,1050
2018-04-27T06:57:38.590Z,1050
2018-04-27T06:58:04.955Z,1065
2018-04-27T06:58:30.722Z,1075
2018-04-27T06:58:56.309Z,1105
2018-04-27T06:59:21.861Z,1115
2018-04-27T06:59:47.456Z,1110
2018-04-27T07:00:13.400Z,1080
2018-04-27T07:00:39.090Z,1040
2018-04-27T07:01:04.897Z,860
2018-04-27T07:01:30.671Z,730
2018-04-27T07:01:56.379Z,815
2018-04-27T07:02:22.089Z,695
2018-04-27T07:02:48.019Z,580
2018-04-27T07:03:13.734Z,470
2018-04-27T07:03:39.469Z,385
2018-04-27T07:04:05.128Z,325
2018-04-27T07:04:30.680Z,305
2018-04-27T07:04:56.257Z,290
2018-04-27T07:05:21.988Z,285
2018-04-27T07:05:47.540Z,280
2018-04-27T07:06:13.100Z,285
2018-04-27T07:06:38.797Z,285
2018-04-27T07:07:04.277Z,270
2018-04-27T07:07:29.801Z,285
2018-04-27T07:07:55.528Z,285
2018-04-27T07:08:21.118Z,285
2018-04-27T07:08:46.742Z,280
2018-04-27T07:09:12.344Z,285
2018-04-27T07:09:37.964Z,280
2018-04-27T07:10:03.531Z,280
2018-04-27T07:10:29.050Z,280
2018-04-27T07:10:54.769Z,280
2018-04-27T07:11:20.285Z,280
2018-04-27T07:11:45.876Z,255
2018-04-27T07:12:11.552Z,250
2018-04-27T07:12:37.097Z,275
2018-04-27T07:13:02.796Z,270
2018-04-27T07:13:28.221Z,265
2018-04-27T07:13:54.407Z,275
2018-04-27T07:14:20.180Z,275
2018-04-27T07:14:46.144Z,275
2018-04-27T07:15:11.851Z,275
2018-04-27T07:15:37.317Z,270
2018-04-27T07:16:02.864Z,270
2018-04-27T07:16:28.362Z,270
2018-04-27T07:16:54.138Z,275
2018-04-27T07:17:19.573Z,275
2018-04-27T07:17:45.108Z,275
2018-04-27T07:18:10.579Z,275
2018-04-27T07:18:36.071Z,275
2018-04-27T07:19:01.645Z,275
2018-04-27T07:19:27.191Z,265
2018-04-27T07:19:52.650Z,265
2018-04-27T07:20:18.260Z,265
2018-04-27T07:20:43.884Z,270
2018-04-27T07:21:09.390Z,270
2018-04-27T07:21:35.183Z,270
2018-04-27T07:22:00.669Z,265
2018-04-27T07:22:26.189Z,275
2018-04-27T07:22:51.728Z,275
2018-04-27T07:23:17.314Z,275
2018-04-27T07:23:42.875Z,275
2018-04-27T07:24:08.774Z,275
2018-04-27T07:24:34.334Z,275
2018-04-27T07:24:59.851Z,280
2018-04-27T07:25:25.372Z,280
2018-04-27T07:25:50.926Z,270
2018-04-27T07:26:16.481Z,250
2018-04-27T07:26:42.030Z,280
2018-04-27T07:27:07.508Z,275
2018-04-27T07:27:33.040Z,280
2018-04-27T07:27:58.627Z,275
2018-04-27T07:28:24.206Z,275
2018-04-27T07:28:49.679Z,275
2018-04-27T07:29:15.262Z,275
2018-04-27T07:29:40.763Z,280
2018-04-27T07:30:06.375Z,280
2018-04-27T07:30:31.957Z,275
2018-04-27T07:30:57.475Z,275
2018-04-27T07:31:23.053Z,265
2018-04-27T07:31:48.616Z,250
2018-04-27T07:32:14.246Z,260
2018-04-27T07:32:40.115Z,260
2018-04-27T07:33:06.014Z,265
2018-04-27T07:33:31.842Z,270
2018-04-27T07:33:57.426Z,270
2018-04-27T07:34:23.037Z,275
2018-04-27T07:34:48.932Z,270
2018-04-27T07:35:14.332Z,270
2018-04-27T07:35:40.337Z,280
2018-04-27T07:36:05.914Z,280
2018-04-27T07:36:31.502Z,280
2018-04-27T07:36:57.259Z,280
2018-04-27T07:37:22.881Z,280
2018-04-27T07:37:48.451Z,275
2018-04-27T07:38:14.069Z,280
2018-04-27T07:38:39.661Z,275
2018-04-27T07:39:05.158Z,275
2018-04-27T07:39:30.717Z,275
2018-04-27T07:39:56.233Z,275
2018-04-27T07:40:21.835Z,280
2018-04-27T07:40:47.566Z,280
2018-04-27T07:41:13.111Z,280
2018-04-27T07:41:38.730Z,280
2018-04-27T07:42:04.417Z,280
2018-04-27T07:42:29.872Z,280
2018-04-27T07:42:55.404Z,275
2018-04-27T07:43:21.221Z,275
2018-04-27T07:43:47.519Z,275
2018-04-27T07:44:13.134Z,275
2018-04-27T07:44:38.844Z,275
2018-04-27T07:45:04.395Z,270
2018-04-27T07:45:29.945Z,270
2018-04-27T07:45:55.459Z,270
2018-04-27T07:46:21.052Z,270
2018-04-27T07:46:46.719Z,270
2018-04-27T07:47:12.334Z,270
2018-04-27T07:47:37.936Z,270
2018-04-27T07:48:03.771Z,270
2018-04-27T07:48:29.529Z,270
2018-04-27T07:48:55.132Z,265
2018-04-27T07:49:20.689Z,265
2018-04-27T07:49:46.284Z,265
2018-04-27T07:50:12.038Z,265
2018-04-27T07:50:37.616Z,265
2018-04-27T07:51:03.212Z,265
2018-04-27T07:51:28.750Z,265
2018-04-27T07:51:54.422Z,265
2018-04-27T07:52:20.209Z,265
2018-04-27T07:52:45.731Z,265
2018-04-27T07:53:11.154Z,260
2018-04-27T07:53:36.814Z,260
2018-04-27T07:54:02.493Z,260
2018-04-27T07:54:28.142Z,260
2018-04-27T07:54:53.634Z,260
2018-04-27T07:55:19.456Z,260
2018-04-27T07:55:44.879Z,260
2018-04-27T07:56:10.447Z,260
2018-04-27T07:56:35.888Z,265
2018-04-27T07:57:01.426Z,265
2018-04-27T07:57:27.058Z,265
2018-04-27T07:57:52.631Z,265
2018-04-27T07:58:18.236Z,270
2018-04-27T07:58:43.759Z,265
2018-04-27T07:59:09.371Z,270
2018-04-27T07:59:35.101Z,270
2018-04-27T08:00:00.641Z,265
2018-04-27T08:00:26.245Z,265
2018-04-27T08:00:52.055Z,265
2018-04-27T08:01:18.833Z,270
2018-04-27T08:01:44.613Z,265
2018-04-27T08:02:10.146Z,270
2018-04-27T08:02:35.604Z,270
2018-04-27T08:03:01.104Z,265
2018-04-27T08:03:26.613Z,265
2018-04-27T08:03:52.168Z,265
2018-04-27T08:04:17.832Z,260
2018-04-27T08:04:43.347Z,260
2018-04-27T08:05:08.852Z,255
2018-04-27T08:05:34.502Z,255
2018-04-27T08:06:00.366Z,260
2018-04-27T08:06:26.331Z,260
2018-04-27T08:06:51.825Z,260
2018-04-27T08:07:17.642Z,260
2018-04-27T08:07:43.082Z,260
2018-04-27T08:08:08.565Z,255
2018-04-27T08:08:34.424Z,255
2018-04-27T08:08:59.962Z,250
2018-04-27T08:09:25.424Z,250
2018-04-27T08:09:51.187Z,250
2018-04-27T08:10:16.963Z,250
2018-04-27T08:10:42.771Z,250
2018-04-27T08:11:08.187Z,250
2018-04-27T08:11:33.684Z,255
2018-04-27T08:11:59.230Z,250
2018-04-27T08:12:24.708Z,250
2018-04-27T08:12:50.391Z,255
2018-04-27T08:13:15.916Z,255
2018-04-27T08:13:41.673Z,255
2018-04-27T08:14:07.195Z,255
2018-04-27T08:14:32.607Z,255
2018-04-27T08:14:58.142Z,260
2018-04-27T08:15:23.678Z,260
2018-04-27T08:15:49.168Z,255
2018-04-27T08:16:14.641Z,260
2018-04-27T08:16:40.227Z,260
2018-04-27T08:17:05.825Z,260
2018-04-27T08:17:31.461Z,260
2018-04-27T08:17:56.881Z,265
2018-04-27T08:18:22.358Z,265
2018-04-27T08:18:47.862Z,270
2018-04-27T08:19:13.342Z,270
2018-04-27T08:19:38.847Z,270
2018-04-27T08:20:04.353Z,265
2018-04-27T08:20:29.865Z,270
2018-04-27T08:21:53.393Z,270
2018-04-27T08:22:18.886Z,270
2018-04-27T08:22:44.373Z,270
2018-04-27T08:23:09.880Z,270
2018-04-27T08:23:35.373Z,275
2018-04-27T08:24:00.870Z,275
2018-04-27T08:24:26.379Z,280
2018-04-27T08:24:51.841Z,280
2018-04-27T08:25:17.295Z,285
2018-04-27T08:25:42.824Z,280
2018-04-27T08:26:08.327Z,280
2018-04-27T08:26:33.821Z,280
2018-04-27T08:26:59.325Z,285
2018-04-27T08:27:24.837Z,285
2018-04-27T08:27:50.305Z,285
2018-04-27T08:28:15.795Z,290
2018-04-27T08:28:41.335Z,290
2018-04-27T08:29:06.825Z,295
2018-04-27T08:29:32.296Z,300
2018-04-27T08:29:57.798Z,305
2018-04-27T08:30:23.274Z,310
2018-04-27T08:30:48.752Z,315
2018-04-27T08:31:14.262Z,320
2018-04-27T08:31:39.840Z,320
2018-04-27T08:32:05.522Z,330
2018-04-27T08:32:30.993Z,335
2018-04-27T08:32:56.513Z,335
2018-04-27T08:33:22.088Z,340
2018-04-27T08:33:47.812Z,340
2018-04-27T08:34:13.383Z,345
2018-04-27T08:34:39.064Z,350
2018-04-27T08:35:04.624Z,350
2018-04-27T08:35:30.223Z,355
2018-04-27T08:35:55.780Z,360
2018-04-27T08:36:21.277Z,360
2018-04-27T08:36:46.848Z,360
2018-04-27T08:37:12.375Z,360
2018-04-27T08:37:37.968Z,365
2018-04-27T08:38:03.728Z,370
2018-04-27T08:38:29.178Z,370
2018-04-27T08:38:54.745Z,370
2018-04-27T08:39:20.316Z,370
2018-04-27T08:39:46.020Z,375
2018-04-27T08:40:11.555Z,375
2018-04-27T08:40:37.148Z,375
2018-04-27T08:41:02.833Z,370
2018-04-27T08:41:28.360Z,370
2018-04-27T08:41:53.939Z,370
2018-04-27T08:42:19.508Z,370
2018-04-27T08:42:45.116Z,370
2018-04-27T08:43:10.788Z,370
2018-04-27T08:43:36.416Z,370
2018-04-27T08:44:01.997Z,370
2018-04-27T08:44:27.546Z,370
2018-04-27T08:44:53.219Z,375
2018-04-27T08:45:18.748Z,375
2018-04-27T08:45:44.277Z,375
2018-04-27T08:46:09.946Z,375
2018-04-27T08:46:35.475Z,380
2018-04-27T08:47:01.053Z,375
2018-04-27T08:47:26.563Z,375
2018-04-27T08:47:52.094Z,375
2018-04-27T08:48:17.556Z,380
2018-04-27T08:48:43.099Z,380
2018-04-27T08:49:08.606Z,380
2018-04-27T08:49:34.089Z,385
2018-04-27T08:49:59.649Z,385
2018-04-27T08:50:25.206Z,390
2018-04-27T08:50:50.709Z,390
2018-04-27T08:51:16.231Z,390
2018-04-27T08:51:41.723Z,395
2018-04-27T08:52:07.253Z,390
2018-04-27T08:52:32.816Z,390
2018-04-27T08:52:58.328Z,390
2018-04-27T08:53:23.912Z,390
2018-04-27T08:53:49.398Z,395
2018-04-27T08:54:14.938Z,390
2018-04-27T08:54:40.529Z,385
2018-04-27T08:55:05.948Z,385
2018-04-27T08:55:31.490Z,385
2018-04-27T08:55:56.983Z,385
2018-04-27T08:56:22.458Z,385
2018-04-27T08:56:48.021Z,385
2018-04-27T08:57:13.544Z,380
2018-04-27T08:57:39.037Z,380
2018-04-27T08:58:04.727Z,380
2018-04-27T08:58:30.204Z,380
2018-04-27T08:58:55.782Z,385
2018-04-27T08:59:21.311Z,385
2018-04-27T08:59:46.852Z,390
2018-04-27T09:00:12.322Z,390
2018-04-27T09:00:37.819Z,390
2018-04-27T09:01:03.316Z,395
2018-04-27T09:02:22.300Z,395
2018-04-27T09:02:47.920Z,395
2018-04-27T09:03:13.287Z,395
2018-04-27T09:03:38.833Z,395
2018-04-27T09:04:04.307Z,405
2018-04-27T09:04:29.753Z,400
2018-04-27T09:04:55.282Z,405
2018-04-27T09:05:20.762Z,405
2018-04-27T09:05:46.270Z,410
2018-04-27T09:06:11.681Z,410
2018-04-27T09:06:37.288Z,410
2018-04-27T09:07:02.750Z,410
2018-04-27T09:07:28.271Z,410
2018-04-27T09:07:53.800Z,410
2018-04-27T09:08:19.295Z,415
2018-04-27T09:08:44.809Z,415
2018-04-27T09:09:10.332Z,415
2018-04-27T09:09:35.820Z,415
2018-04-27T09:10:01.331Z,420
2018-04-27T09:10:26.887Z,420
2018-04-27T09:10:52.395Z,425
2018-04-27T09:11:17.904Z,430
2018-04-27T09:11:43.420Z,430
2018-04-27T09:12:08.916Z,435
2018-04-27T09:12:34.458Z,435
2018-04-27T09:12:59.965Z,435
2018-04-27T09:13:25.452Z,435
2018-04-27T09:13:50.998Z,435
2018-04-27T09:14:16.594Z,435
2018-04-27T09:14:42.084Z,435
2018-04-27T09:15:07.559Z,440
2018-04-27T09:15:33.047Z,440
2018-04-27T09:15:58.530Z,435
2018-04-27T09:16:24.031Z,445
2018-04-27T09:16:49.470Z,445
2018-04-27T09:17:58.578Z,455
2018-04-27T09:18:24.092Z,455
2018-04-27T09:18:49.716Z,455
2018-04-27T09:19:15.236Z,460
2018-04-27T09:19:40.707Z,460
2018-04-27T09:20:06.285Z,455
2018-04-27T09:20:31.732Z,460
2018-04-27T09:20:57.225Z,450
2018-04-27T09:21:22.853Z,450
2018-04-27T09:21:48.350Z,455
2018-04-27T09:22:13.868Z,455
2018-04-27T09:22:39.520Z,460
2018-04-27T09:23:05.053Z,460
2018-04-27T09:23:30.485Z,460
2018-04-27T09:23:55.997Z,460
2018-04-27T09:24:21.527Z,455
2018-04-27T09:24:46.982Z,460
2018-04-27T09:25:12.467Z,455
2018-04-27T09:25:37.993Z,450
2018-04-27T09:26:03.485Z,455
2018-04-27T09:26:29.014Z,450
2018-04-27T09:26:54.720Z,440
2018-04-27T09:27:20.156Z,440
2018-04-27T09:27:45.674Z,440
2018-04-27T09:28:11.202Z,445
2018-04-27T09:28:36.759Z,445
2018-04-27T09:29:02.274Z,445
2018-04-27T09:29:27.827Z,440
2018-04-27T09:29:53.368Z,440
2018-04-27T09:30:18.865Z,440
2018-04-27T09:30:44.397Z,440
2018-04-27T09:31:09.892Z,440
2018-04-27T09:31:35.426Z,435
2018-04-27T09:32:00.917Z,440
2018-04-27T09:32:26.507Z,435
2018-04-27T09:32:52.062Z,440
2018-04-27T09:33:17.555Z,445
2018-04-27T09:33:43.125Z,445
2018-04-27T09:34:08.626Z,445
2018-04-27T09:34:34.207Z,445
2018-04-27T09:34:59.691Z,445
2018-04-27T09:35:25.229Z,445
2018-04-27T09:35:50.781Z,445
2018-04-27T09:36:16.296Z,445
2018-04-27T09:36:41.806Z,440
2018-04-27T09:37:07.322Z,440
2018-04-27T09:37:32.854Z,430
2018-04-27T09:37:58.361Z,425
2018-04-27T09:38:23.876Z,420
2018-04-27T09:38:49.349Z,415
2018-04-27T09:39:14.850Z,415
2018-04-27T09:39:40.384Z,405
2018-04-27T09:40:05.885Z,400
2018-04-27T09:40:31.365Z,395
2018-04-27T09:40:56.915Z,390
2018-04-27T09:41:22.433Z,385
2018-04-27T09:41:48.064Z,385
2018-04-27T09:42:13.550Z,390
2018-04-27T09:42:39.053Z,395
2018-04-27T09:43:04.573Z,405
2018-04-27T09:43:30.083Z,415
2018-04-27T09:43:55.538Z,420
2018-04-27T09:44:21.037Z,430
2018-04-27T09:44:46.556Z,430
2018-04-27T09:45:12.132Z,435
2018-04-27T09:45:37.666Z,440
2018-04-27T09:46:03.235Z,435
2018-04-27T09:46:28.720Z,440
2018-04-27T09:46:54.261Z,440
2018-04-27T09:47:19.782Z,440
2018-04-27T09:47:45.360Z,440
2018-04-27T09:48:10.978Z,440
2018-04-27T09:48:36.464Z,440
2018-04-27T09:49:01.959Z,435
2018-04-27T09:49:27.502Z,435
2018-04-27T09:49:53.150Z,435
2018-04-27T09:50:18.659Z,435
2018-04-27T09:50:44.288Z,440
2018-04-27T09:51:09.733Z,445
2018-04-27T09:51:35.362Z,450
2018-04-27T09:52:01.105Z,455
2018-04-27T09:52:26.684Z,455
2018-04-27T09:52:52.248Z,455
2018-04-27T09:53:17.729Z,460
2018-04-27T09:53:43.301Z,455
2018-04-27T09:54:08.825Z,460
2018-04-27T09:54:34.344Z,455
2018-04-27T09:54:59.893Z,455
2018-04-27T09:55:25.410Z,450
2018-04-27T09:55:50.924Z,445
2018-04-27T09:56:16.498Z,445
2018-04-27T09:56:42.024Z,445
2018-04-27T09:57:07.537Z,440
2018-04-27T09:57:33.175Z,445
2018-04-27T09:57:58.577Z,445
2018-04-27T09:58:24.060Z,440
2018-04-27T09:58:49.561Z,435
2018-04-27T09:59:15.041Z,435
2018-04-27T09:59:40.503Z,430
2018-04-27T10:00:05.988Z,430
2018-04-27T10:00:31.513Z,425
2018-04-27T10:00:57.014Z,420
2018-04-27T10:01:22.596Z,420
2018-04-27T10:01:48.089Z,420
2018-04-27T10:02:13.609Z,415
2018-04-27T10:02:39.107Z,420
2018-04-27T10:03:04.662Z,420
2018-04-27T10:03:30.198Z,420
2018-04-27T10:03:55.768Z,420
2018-04-27T10:04:21.263Z,425
2018-04-27T10:04:46.862Z,425
2018-04-27T10:05:12.349Z,420
2018-04-27T10:05:37.842Z,420
2018-04-27T10:06:03.429Z,420
2018-04-27T10:06:28.933Z,415
2018-04-27T10:06:54.397Z,415
2018-04-27T10:07:19.873Z,415
2018-04-27T10:07:45.472Z,410
2018-04-27T10:08:11.022Z,410